sensor_id;sensor_type;location;lat;lon;timestamp;P1;durP1;ratioP1;P2;durP2;ratioP2
52718;SDS011;38616;42.140;24.760;2023-12-20T00:02:23;45.05;;;23.90;;
52718;SDS011;38616;42.140;24.760;2023-12-20T00:04:48;49.75;;;25.00;;
52718;SDS011;38616;42.140;24.760;2023-12-20T00:07:15;43.20;;;23.75;;
52718;SDS011;38616;42.140;24.760;2023-12-20T00:09:40;46.55;;;24.38;;
52718;SDS011;38616;42.140;24.760;2023-12-20T00:12:06;44.47;;;23.63;;
52718;SDS011;38616;42.140;24.760;2023-12-20T00:14:31;45.05;;;22.83;;
52718;SDS011;38616;42.140;24.760;2023-12-20T00:16:57;42.22;;;21.63;;
52718;SDS011;38616;42.140;24.760;2023-12-20T00:19:22;41.22;;;20.27;;
52718;SDS011;38616;42.140;24.760;2023-12-20T00:21:49;36.33;;;17.95;;
52718;SDS011;38616;42.140;24.760;2023-12-20T00:24:14;40.35;;;19.70;;
52718;SDS011;38616;42.140;24.760;2023-12-20T00:26:40;39.20;;;20.30;;
52718;SDS011;38616;42.140;24.760;2023-12-20T00:29:05;43.33;;;21.83;;
52718;SDS011;38616;42.140;24.760;2023-12-20T00:31:31;53.05;;;20.80;;
52718;SDS011;38616;42.140;24.760;2023-12-20T00:33:56;45.35;;;22.20;;
52718;SDS011;38616;42.140;24.760;2023-12-20T00:36:23;50.05;;;21.05;;
52718;SDS011;38616;42.140;24.760;2023-12-20T00:38:48;47.45;;;20.40;;
52718;SDS011;38616;42.140;24.760;2023-12-20T00:41:15;36.53;;;16.65;;
52718;SDS011;38616;42.140;24.760;2023-12-20T00:46:17;41.08;;;17.63;;
52718;SDS011;38616;42.140;24.760;2023-12-20T00:48:42;38.85;;;17.40;;
52718;SDS011;38616;42.140;24.760;2023-12-20T00:51:10;37.70;;;18.35;;
52718;SDS011;38616;42.140;24.760;2023-12-20T00:53:36;35.05;;;16.77;;
52718;SDS011;38616;42.140;24.760;2023-12-20T00:56:01;29.67;;;14.38;;
52718;SDS011;38616;42.140;24.760;2023-12-20T00:58:27;33.20;;;14.30;;
52718;SDS011;38616;42.140;24.760;2023-12-20T01:00:53;31.98;;;15.30;;
52718;SDS011;38616;42.140;24.760;2023-12-20T01:03:18;28.15;;;13.88;;
52718;SDS011;38616;42.140;24.760;2023-12-20T01:05:44;25.27;;;12.23;;
52718;SDS011;38616;42.140;24.760;2023-12-20T01:08:09;25.58;;;13.02;;
52718;SDS011;38616;42.140;24.760;2023-12-20T01:10:35;27.38;;;12.77;;
52718;SDS011;38616;42.140;24.760;2023-12-20T01:13:00;27.63;;;12.27;;
52718;SDS011;38616;42.140;24.760;2023-12-20T01:15:26;24.02;;;13.15;;
52718;SDS011;38616;42.140;24.760;2023-12-20T01:17:51;22.15;;;10.93;;
52718;SDS011;38616;42.140;24.760;2023-12-20T01:20:17;24.80;;;10.93;;
52718;SDS011;38616;42.140;24.760;2023-12-20T01:22:44;22.80;;;11.52;;
52718;SDS011;38616;42.140;24.760;2023-12-20T01:25:11;21.73;;;10.65;;
52718;SDS011;38616;42.140;24.760;2023-12-20T01:27:36;24.73;;;11.05;;
52718;SDS011;38616;42.140;24.760;2023-12-20T01:30:04;28.38;;;11.75;;
52718;SDS011;38616;42.140;24.760;2023-12-20T01:32:30;25.63;;;11.35;;
52718;SDS011;38616;42.140;24.760;2023-12-20T01:34:55;22.63;;;12.55;;
52718;SDS011;38616;42.140;24.760;2023-12-20T01:37:21;26.90;;;12.73;;
52718;SDS011;38616;42.140;24.760;2023-12-20T01:39:48;27.80;;;14.07;;
52718;SDS011;38616;42.140;24.760;2023-12-20T01:42:14;26.75;;;13.77;;
52718;SDS011;38616;42.140;24.760;2023-12-20T01:44:39;27.90;;;12.90;;
52718;SDS011;38616;42.140;24.760;2023-12-20T01:47:05;30.10;;;15.75;;
52718;SDS011;38616;42.140;24.760;2023-12-20T01:49:30;23.73;;;12.30;;
52718;SDS011;38616;42.140;24.760;2023-12-20T01:51:56;24.33;;;11.93;;
52718;SDS011;38616;42.140;24.760;2023-12-20T01:54:22;24.58;;;11.43;;
52718;SDS011;38616;42.140;24.760;2023-12-20T01:56:48;28.50;;;11.07;;
52718;SDS011;38616;42.140;24.760;2023-12-20T01:59:15;22.10;;;10.00;;
52718;SDS011;38616;42.140;24.760;2023-12-20T02:01:40;17.52;;;7.47;;
52718;SDS011;38616;42.140;24.760;2023-12-20T02:04:06;20.00;;;8.52;;
52718;SDS011;38616;42.140;24.760;2023-12-20T02:06:32;17.90;;;8.48;;
52718;SDS011;38616;42.140;24.760;2023-12-20T02:08:59;20.38;;;8.32;;
52718;SDS011;38616;42.140;24.760;2023-12-20T02:11:25;21.83;;;8.98;;
52718;SDS011;38616;42.140;24.760;2023-12-20T02:13:51;23.02;;;9.90;;
52718;SDS011;38616;42.140;24.760;2023-12-20T02:16:16;19.85;;;7.57;;
52718;SDS011;38616;42.140;24.760;2023-12-20T02:18:42;22.20;;;8.75;;
52718;SDS011;38616;42.140;24.760;2023-12-20T02:21:09;18.77;;;7.93;;
52718;SDS011;38616;42.140;24.760;2023-12-20T02:23:35;21.02;;;8.45;;
52718;SDS011;38616;42.140;24.760;2023-12-20T02:26:00;18.15;;;8.35;;
52718;SDS011;38616;42.140;24.760;2023-12-20T02:28:26;19.00;;;8.88;;
52718;SDS011;38616;42.140;24.760;2023-12-20T02:30:53;20.25;;;8.48;;
52718;SDS011;38616;42.140;24.760;2023-12-20T02:33:18;27.52;;;8.73;;
52718;SDS011;38616;42.140;24.760;2023-12-20T02:35:44;23.80;;;9.63;;
52718;SDS011;38616;42.140;24.760;2023-12-20T02:38:09;20.17;;;9.38;;
52718;SDS011;38616;42.140;24.760;2023-12-20T02:40:35;21.83;;;8.93;;
52718;SDS011;38616;42.140;24.760;2023-12-20T02:43:00;20.10;;;9.02;;
52718;SDS011;38616;42.140;24.760;2023-12-20T02:45:26;15.80;;;7.50;;
52718;SDS011;38616;42.140;24.760;2023-12-20T02:47:52;19.00;;;8.52;;
52718;SDS011;38616;42.140;24.760;2023-12-20T02:50:17;18.48;;;9.07;;
52718;SDS011;38616;42.140;24.760;2023-12-20T02:52:44;19.27;;;8.65;;
52718;SDS011;38616;42.140;24.760;2023-12-20T02:55:10;24.42;;;10.05;;
52718;SDS011;38616;42.140;24.760;2023-12-20T02:57:35;22.20;;;10.23;;
52718;SDS011;38616;42.140;24.760;2023-12-20T03:00:08;21.88;;;10.40;;
52718;SDS011;38616;42.140;24.760;2023-12-20T03:02:34;22.40;;;10.50;;
52718;SDS011;38616;42.140;24.760;2023-12-20T03:05:00;26.50;;;10.20;;
52718;SDS011;38616;42.140;24.760;2023-12-20T03:07:26;27.58;;;12.27;;
52718;SDS011;38616;42.140;24.760;2023-12-20T03:09:52;28.27;;;11.95;;
52718;SDS011;38616;42.140;24.760;2023-12-20T03:12:17;28.73;;;11.40;;
52718;SDS011;38616;42.140;24.760;2023-12-20T03:14:43;31.33;;;12.70;;
52718;SDS011;38616;42.140;24.760;2023-12-20T03:17:09;22.48;;;10.07;;
52718;SDS011;38616;42.140;24.760;2023-12-20T03:19:35;24.23;;;10.60;;
52718;SDS011;38616;42.140;24.760;2023-12-20T03:22:00;25.48;;;10.35;;
52718;SDS011;38616;42.140;24.760;2023-12-20T03:24:28;21.95;;;10.18;;
52718;SDS011;38616;42.140;24.760;2023-12-20T03:26:53;23.33;;;9.90;;
52718;SDS011;38616;42.140;24.760;2023-12-20T03:29:19;23.10;;;10.52;;
52718;SDS011;38616;42.140;24.760;2023-12-20T03:31:44;21.02;;;10.57;;
52718;SDS011;38616;42.140;24.760;2023-12-20T03:34:10;21.88;;;10.18;;
52718;SDS011;38616;42.140;24.760;2023-12-20T03:36:36;18.95;;;9.55;;
52718;SDS011;38616;42.140;24.760;2023-12-20T03:39:02;20.33;;;10.23;;
52718;SDS011;38616;42.140;24.760;2023-12-20T03:41:28;18.45;;;8.55;;
52718;SDS011;38616;42.140;24.760;2023-12-20T03:43:53;15.63;;;7.55;;
52718;SDS011;38616;42.140;24.760;2023-12-20T03:46:18;16.85;;;8.15;;
52718;SDS011;38616;42.140;24.760;2023-12-20T03:48:44;17.10;;;8.02;;
52718;SDS011;38616;42.140;24.760;2023-12-20T03:51:09;21.05;;;9.70;;
52718;SDS011;38616;42.140;24.760;2023-12-20T03:53:35;19.40;;;8.48;;
52718;SDS011;38616;42.140;24.760;2023-12-20T03:56:00;17.08;;;8.25;;
52718;SDS011;38616;42.140;24.760;2023-12-20T03:58:26;15.65;;;8.63;;
52718;SDS011;38616;42.140;24.760;2023-12-20T04:00:51;20.05;;;8.65;;
52718;SDS011;38616;42.140;24.760;2023-12-20T04:03:18;15.70;;;7.65;;
52718;SDS011;38616;42.140;24.760;2023-12-20T04:05:44;21.63;;;9.02;;
52718;SDS011;38616;42.140;24.760;2023-12-20T04:08:09;19.52;;;8.57;;
52718;SDS011;38616;42.140;24.760;2023-12-20T04:10:35;25.70;;;12.35;;
52718;SDS011;38616;42.140;24.760;2023-12-20T04:13:02;27.80;;;13.40;;
52718;SDS011;38616;42.140;24.760;2023-12-20T04:15:28;24.33;;;13.00;;
52718;SDS011;38616;42.140;24.760;2023-12-20T04:17:53;25.85;;;12.02;;
52718;SDS011;38616;42.140;24.760;2023-12-20T04:20:19;27.23;;;12.50;;
52718;SDS011;38616;42.140;24.760;2023-12-20T04:22:44;22.60;;;11.20;;
52718;SDS011;38616;42.140;24.760;2023-12-20T04:25:10;27.27;;;12.02;;
52718;SDS011;38616;42.140;24.760;2023-12-20T04:27:35;22.65;;;10.52;;
52718;SDS011;38616;42.140;24.760;2023-12-20T04:30:01;24.65;;;12.00;;
52718;SDS011;38616;42.140;24.760;2023-12-20T04:32:29;29.02;;;11.63;;
52718;SDS011;38616;42.140;24.760;2023-12-20T04:34:54;28.52;;;11.60;;
52718;SDS011;38616;42.140;24.760;2023-12-20T04:37:19;24.27;;;11.50;;
52718;SDS011;38616;42.140;24.760;2023-12-20T04:39:45;22.88;;;11.32;;
52718;SDS011;38616;42.140;24.760;2023-12-20T04:42:10;21.17;;;10.57;;
52718;SDS011;38616;42.140;24.760;2023-12-20T04:44:36;24.25;;;11.32;;
52718;SDS011;38616;42.140;24.760;2023-12-20T04:47:01;22.20;;;10.50;;
52718;SDS011;38616;42.140;24.760;2023-12-20T04:49:28;23.35;;;11.35;;
52718;SDS011;38616;42.140;24.760;2023-12-20T04:51:53;25.08;;;11.50;;
52718;SDS011;38616;42.140;24.760;2023-12-20T04:54:19;25.90;;;12.43;;
52718;SDS011;38616;42.140;24.760;2023-12-20T04:56:44;32.85;;;15.85;;
52718;SDS011;38616;42.140;24.760;2023-12-20T04:59:10;31.27;;;16.95;;
52718;SDS011;38616;42.140;24.760;2023-12-20T05:01:35;38.05;;;16.77;;
52718;SDS011;38616;42.140;24.760;2023-12-20T05:04:01;29.90;;;14.18;;
52718;SDS011;38616;42.140;24.760;2023-12-20T05:06:27;31.33;;;14.52;;
52718;SDS011;38616;42.140;24.760;2023-12-20T05:08:52;31.17;;;15.52;;
52718;SDS011;38616;42.140;24.760;2023-12-20T05:11:18;28.10;;;13.90;;
52718;SDS011;38616;42.140;24.760;2023-12-20T05:13:43;25.17;;;12.57;;
52718;SDS011;38616;42.140;24.760;2023-12-20T05:16:09;29.08;;;14.10;;
52718;SDS011;38616;42.140;24.760;2023-12-20T05:18:34;27.80;;;14.65;;
52718;SDS011;38616;42.140;24.760;2023-12-20T05:21:00;23.13;;;11.57;;
52718;SDS011;38616;42.140;24.760;2023-12-20T05:23:26;21.40;;;11.05;;
52718;SDS011;38616;42.140;24.760;2023-12-20T05:25:51;20.98;;;10.75;;
52718;SDS011;38616;42.140;24.760;2023-12-20T05:28:17;18.17;;;9.85;;
52718;SDS011;38616;42.140;24.760;2023-12-20T05:30:42;23.65;;;11.32;;
52718;SDS011;38616;42.140;24.760;2023-12-20T05:33:08;24.25;;;11.82;;
52718;SDS011;38616;42.140;24.760;2023-12-20T05:35:34;22.42;;;11.15;;
52718;SDS011;38616;42.140;24.760;2023-12-20T05:38:00;21.08;;;11.07;;
52718;SDS011;38616;42.140;24.760;2023-12-20T05:40:25;20.77;;;10.05;;
52718;SDS011;38616;42.140;24.760;2023-12-20T05:42:51;26.98;;;10.93;;
52718;SDS011;38616;42.140;24.760;2023-12-20T05:45:16;23.58;;;10.60;;
52718;SDS011;38616;42.140;24.760;2023-12-20T05:47:42;20.45;;;10.13;;
52718;SDS011;38616;42.140;24.760;2023-12-20T05:50:07;17.35;;;9.23;;
52718;SDS011;38616;42.140;24.760;2023-12-20T05:52:34;19.48;;;9.32;;
52718;SDS011;38616;42.140;24.760;2023-12-20T05:54:59;21.65;;;10.25;;
52718;SDS011;38616;42.140;24.760;2023-12-20T05:57:26;22.98;;;11.80;;
52718;SDS011;38616;42.140;24.760;2023-12-20T05:59:52;22.50;;;10.88;;
52718;SDS011;38616;42.140;24.760;2023-12-20T06:02:17;20.83;;;10.68;;
52718;SDS011;38616;42.140;24.760;2023-12-20T06:04:43;18.90;;;10.05;;
52718;SDS011;38616;42.140;24.760;2023-12-20T06:07:11;23.17;;;11.63;;
52718;SDS011;38616;42.140;24.760;2023-12-20T06:09:37;19.33;;;10.85;;
52718;SDS011;38616;42.140;24.760;2023-12-20T06:12:05;24.52;;;11.10;;
52718;SDS011;38616;42.140;24.760;2023-12-20T06:14:33;21.98;;;11.40;;
52718;SDS011;38616;42.140;24.760;2023-12-20T06:16:59;24.65;;;12.80;;
52718;SDS011;38616;42.140;24.760;2023-12-20T06:19:26;29.95;;;13.82;;
52718;SDS011;38616;42.140;24.760;2023-12-20T06:21:51;42.40;;;18.35;;
52718;SDS011;38616;42.140;24.760;2023-12-20T06:24:17;51.30;;;17.33;;
52718;SDS011;38616;42.140;24.760;2023-12-20T06:26:42;36.72;;;16.98;;
52718;SDS011;38616;42.140;24.760;2023-12-20T06:29:10;34.17;;;15.82;;
52718;SDS011;38616;42.140;24.760;2023-12-20T06:31:36;32.92;;;14.48;;
52718;SDS011;38616;42.140;24.760;2023-12-20T06:34:02;31.50;;;14.48;;
52718;SDS011;38616;42.140;24.760;2023-12-20T06:36:28;24.00;;;13.90;;
52718;SDS011;38616;42.140;24.760;2023-12-20T06:38:53;24.42;;;12.73;;
52718;SDS011;38616;42.140;24.760;2023-12-20T06:41:19;24.85;;;12.80;;
52718;SDS011;38616;42.140;24.760;2023-12-20T06:43:45;24.67;;;13.02;;
52718;SDS011;38616;42.140;24.760;2023-12-20T06:46:10;19.73;;;10.20;;
52718;SDS011;38616;42.140;24.760;2023-12-20T06:48:38;24.08;;;10.60;;
52718;SDS011;38616;42.140;24.760;2023-12-20T06:51:03;22.65;;;10.25;;
52718;SDS011;38616;42.140;24.760;2023-12-20T06:53:31;19.87;;;9.83;;
52718;SDS011;38616;42.140;24.760;2023-12-20T06:55:56;18.08;;;9.35;;
52718;SDS011;38616;42.140;24.760;2023-12-20T06:58:22;22.08;;;10.27;;
52718;SDS011;38616;42.140;24.760;2023-12-20T07:00:48;24.73;;;11.50;;
52718;SDS011;38616;42.140;24.760;2023-12-20T07:03:15;25.65;;;12.48;;
52718;SDS011;38616;42.140;24.760;2023-12-20T07:05:41;26.77;;;11.00;;
52718;SDS011;38616;42.140;24.760;2023-12-20T07:08:06;26.88;;;12.38;;
52718;SDS011;38616;42.140;24.760;2023-12-20T07:10:32;18.63;;;10.32;;
52718;SDS011;38616;42.140;24.760;2023-12-20T07:12:58;22.27;;;10.20;;
52718;SDS011;38616;42.140;24.760;2023-12-20T07:15:23;18.20;;;9.50;;
52718;SDS011;38616;42.140;24.760;2023-12-20T07:17:49;21.23;;;10.00;;
52718;SDS011;38616;42.140;24.760;2023-12-20T07:20:14;20.15;;;9.77;;
52718;SDS011;38616;42.140;24.760;2023-12-20T07:22:40;17.13;;;8.85;;
52718;SDS011;38616;42.140;24.760;2023-12-20T07:25:05;19.25;;;9.40;;
52718;SDS011;38616;42.140;24.760;2023-12-20T07:27:31;20.90;;;10.00;;
52718;SDS011;38616;42.140;24.760;2023-12-20T07:29:57;16.60;;;9.20;;
52718;SDS011;38616;42.140;24.760;2023-12-20T07:32:22;19.63;;;9.00;;
52718;SDS011;38616;42.140;24.760;2023-12-20T07:34:48;19.00;;;8.77;;
52718;SDS011;38616;42.140;24.760;2023-12-20T07:37:13;20.52;;;9.02;;
52718;SDS011;38616;42.140;24.760;2023-12-20T07:39:39;18.52;;;9.48;;
52718;SDS011;38616;42.140;24.760;2023-12-20T07:42:06;18.58;;;9.88;;
52718;SDS011;38616;42.140;24.760;2023-12-20T07:44:34;17.98;;;8.95;;
52718;SDS011;38616;42.140;24.760;2023-12-20T07:47:01;19.45;;;9.23;;
52718;SDS011;38616;42.140;24.760;2023-12-20T07:49:27;22.50;;;10.90;;
52718;SDS011;38616;42.140;24.760;2023-12-20T07:51:53;23.60;;;9.27;;
52718;SDS011;38616;42.140;24.760;2023-12-20T07:54:18;21.45;;;9.20;;
52718;SDS011;38616;42.140;24.760;2023-12-20T07:56:44;23.70;;;11.23;;
52718;SDS011;38616;42.140;24.760;2023-12-20T07:59:11;20.95;;;10.68;;
52718;SDS011;38616;42.140;24.760;2023-12-20T08:01:37;18.13;;;9.15;;
52718;SDS011;38616;42.140;24.760;2023-12-20T08:04:02;17.73;;;8.60;;
52718;SDS011;38616;42.140;24.760;2023-12-20T08:06:28;19.40;;;9.20;;
52718;SDS011;38616;42.140;24.760;2023-12-20T08:08:54;16.10;;;8.00;;
52718;SDS011;38616;42.140;24.760;2023-12-20T08:11:19;18.65;;;8.38;;
52718;SDS011;38616;42.140;24.760;2023-12-20T08:13:44;17.38;;;8.07;;
52718;SDS011;38616;42.140;24.760;2023-12-20T08:16:10;17.33;;;8.55;;
52718;SDS011;38616;42.140;24.760;2023-12-20T08:18:38;18.33;;;10.18;;
52718;SDS011;38616;42.140;24.760;2023-12-20T08:21:04;19.95;;;8.55;;
52718;SDS011;38616;42.140;24.760;2023-12-20T08:23:32;22.73;;;9.57;;
52718;SDS011;38616;42.140;24.760;2023-12-20T08:25:58;20.20;;;9.77;;
52718;SDS011;38616;42.140;24.760;2023-12-20T08:28:23;18.58;;;9.63;;
52718;SDS011;38616;42.140;24.760;2023-12-20T08:30:49;23.80;;;12.27;;
52718;SDS011;38616;42.140;24.760;2023-12-20T08:33:18;18.98;;;11.02;;
52718;SDS011;38616;42.140;24.760;2023-12-20T08:35:44;19.40;;;9.98;;
52718;SDS011;38616;42.140;24.760;2023-12-20T08:38:09;18.45;;;9.43;;
52718;SDS011;38616;42.140;24.760;2023-12-20T08:40:35;18.13;;;9.55;;
52718;SDS011;38616;42.140;24.760;2023-12-20T08:43:00;16.20;;;8.80;;
52718;SDS011;38616;42.140;24.760;2023-12-20T08:45:26;17.85;;;9.40;;
52718;SDS011;38616;42.140;24.760;2023-12-20T08:47:51;20.80;;;10.68;;
52718;SDS011;38616;42.140;24.760;2023-12-20T08:50:17;17.67;;;8.85;;
52718;SDS011;38616;42.140;24.760;2023-12-20T08:52:43;16.77;;;9.57;;
52718;SDS011;38616;42.140;24.760;2023-12-20T08:55:08;18.27;;;9.15;;
52718;SDS011;38616;42.140;24.760;2023-12-20T08:57:35;20.55;;;9.50;;
52718;SDS011;38616;42.140;24.760;2023-12-20T09:00:01;21.30;;;9.32;;
52718;SDS011;38616;42.140;24.760;2023-12-20T09:02:27;21.92;;;10.35;;
52718;SDS011;38616;42.140;24.760;2023-12-20T09:04:52;17.73;;;10.15;;
52718;SDS011;38616;42.140;24.760;2023-12-20T09:07:24;25.00;;;10.70;;
52718;SDS011;38616;42.140;24.760;2023-12-20T09:09:50;18.02;;;9.65;;
52718;SDS011;38616;42.140;24.760;2023-12-20T09:12:19;20.92;;;11.10;;
52718;SDS011;38616;42.140;24.760;2023-12-20T09:14:46;20.52;;;10.88;;
52718;SDS011;38616;42.140;24.760;2023-12-20T09:17:15;23.15;;;12.35;;
52718;SDS011;38616;42.140;24.760;2023-12-20T09:19:41;21.38;;;12.35;;
52718;SDS011;38616;42.140;24.760;2023-12-20T09:22:08;20.80;;;10.05;;
52718;SDS011;38616;42.140;24.760;2023-12-20T09:24:34;20.23;;;10.73;;
52718;SDS011;38616;42.140;24.760;2023-12-20T09:27:00;20.10;;;10.23;;
52718;SDS011;38616;42.140;24.760;2023-12-20T09:29:25;23.63;;;12.30;;
52718;SDS011;38616;42.140;24.760;2023-12-20T09:31:51;18.52;;;9.45;;
52718;SDS011;38616;42.140;24.760;2023-12-20T09:34:16;18.98;;;10.57;;
52718;SDS011;38616;42.140;24.760;2023-12-20T09:36:43;17.23;;;9.10;;
52718;SDS011;38616;42.140;24.760;2023-12-20T09:39:18;16.85;;;10.15;;
52718;SDS011;38616;42.140;24.760;2023-12-20T09:41:45;20.52;;;11.00;;
52718;SDS011;38616;42.140;24.760;2023-12-20T09:44:16;20.63;;;11.20;;
52718;SDS011;38616;42.140;24.760;2023-12-20T09:46:45;23.10;;;11.55;;
52718;SDS011;38616;42.140;24.760;2023-12-20T09:49:17;20.25;;;10.60;;
52718;SDS011;38616;42.140;24.760;2023-12-20T09:51:44;23.17;;;11.10;;
52718;SDS011;38616;42.140;24.760;2023-12-20T09:54:12;21.33;;;10.43;;
52718;SDS011;38616;42.140;24.760;2023-12-20T09:56:42;22.27;;;11.20;;
52718;SDS011;38616;42.140;24.760;2023-12-20T09:59:07;21.27;;;11.48;;
52718;SDS011;38616;42.140;24.760;2023-12-20T10:01:33;24.75;;;10.68;;
52718;SDS011;38616;42.140;24.760;2023-12-20T10:04:00;24.45;;;10.52;;
52718;SDS011;38616;42.140;24.760;2023-12-20T10:06:27;19.65;;;10.43;;
52718;SDS011;38616;42.140;24.760;2023-12-20T10:08:52;17.98;;;10.13;;
52718;SDS011;38616;42.140;24.760;2023-12-20T10:11:18;21.10;;;11.20;;
52718;SDS011;38616;42.140;24.760;2023-12-20T10:13:44;18.92;;;9.48;;
52718;SDS011;38616;42.140;24.760;2023-12-20T10:16:13;20.48;;;8.80;;
52718;SDS011;38616;42.140;24.760;2023-12-20T10:18:38;18.05;;;8.48;;
52718;SDS011;38616;42.140;24.760;2023-12-20T10:21:04;18.30;;;8.75;;
52718;SDS011;38616;42.140;24.760;2023-12-20T10:23:31;20.70;;;9.82;;
52718;SDS011;38616;42.140;24.760;2023-12-20T10:25:57;20.60;;;9.70;;
52718;SDS011;38616;42.140;24.760;2023-12-20T10:28:24;20.63;;;9.05;;
52718;SDS011;38616;42.140;24.760;2023-12-20T10:30:52;15.73;;;8.82;;
52718;SDS011;38616;42.140;24.760;2023-12-20T10:33:25;18.65;;;8.27;;
52718;SDS011;38616;42.140;24.760;2023-12-20T10:35:52;22.77;;;9.02;;
52718;SDS011;38616;42.140;24.760;2023-12-20T10:38:18;17.50;;;8.55;;
52718;SDS011;38616;42.140;24.760;2023-12-20T10:40:44;19.67;;;8.82;;
52718;SDS011;38616;42.140;24.760;2023-12-20T10:43:11;17.80;;;7.45;;
52718;SDS011;38616;42.140;24.760;2023-12-20T10:45:37;19.60;;;7.70;;
52718;SDS011;38616;42.140;24.760;2023-12-20T10:48:06;14.68;;;7.57;;
52718;SDS011;38616;42.140;24.760;2023-12-20T10:50:32;14.05;;;7.47;;
52718;SDS011;38616;42.140;24.760;2023-12-20T10:53:03;14.60;;;7.53;;
52718;SDS011;38616;42.140;24.760;2023-12-20T10:55:29;16.42;;;7.57;;
52718;SDS011;38616;42.140;24.760;2023-12-20T10:58:06;16.63;;;8.38;;
52718;SDS011;38616;42.140;24.760;2023-12-20T11:00:32;17.15;;;9.10;;
52718;SDS011;38616;42.140;24.760;2023-12-20T11:03:05;15.88;;;8.57;;
52718;SDS011;38616;42.140;24.760;2023-12-20T11:08:15;18.38;;;9.63;;
52718;SDS011;38616;42.140;24.760;2023-12-20T11:13:21;21.15;;;8.77;;
52718;SDS011;38616;42.140;24.760;2023-12-20T11:15:52;16.65;;;9.05;;
52718;SDS011;38616;42.140;24.760;2023-12-20T11:18:18;16.90;;;9.88;;
52718;SDS011;38616;42.140;24.760;2023-12-20T11:20:43;14.82;;;8.45;;
52718;SDS011;38616;42.140;24.760;2023-12-20T11:23:09;18.15;;;9.55;;
52718;SDS011;38616;42.140;24.760;2023-12-20T11:25:47;19.05;;;9.70;;
52718;SDS011;38616;42.140;24.760;2023-12-20T11:28:13;18.80;;;8.25;;
52718;SDS011;38616;42.140;24.760;2023-12-20T11:30:45;15.95;;;7.55;;
52718;SDS011;38616;42.140;24.760;2023-12-20T11:33:23;15.93;;;9.40;;
52718;SDS011;38616;42.140;24.760;2023-12-20T11:35:49;18.98;;;9.45;;
52718;SDS011;38616;42.140;24.760;2023-12-20T11:38:15;20.25;;;8.10;;
52718;SDS011;38616;42.140;24.760;2023-12-20T11:40:41;17.52;;;8.10;;
52718;SDS011;38616;42.140;24.760;2023-12-20T11:43:08;25.20;;;9.85;;
52718;SDS011;38616;42.140;24.760;2023-12-20T11:45:34;24.02;;;10.95;;
52718;SDS011;38616;42.140;24.760;2023-12-20T11:48:00;21.23;;;10.93;;
52718;SDS011;38616;42.140;24.760;2023-12-20T11:50:27;27.30;;;9.83;;
52718;SDS011;38616;42.140;24.760;2023-12-20T11:52:54;30.10;;;10.30;;
52718;SDS011;38616;42.140;24.760;2023-12-20T11:55:23;23.00;;;9.35;;
52718;SDS011;38616;42.140;24.760;2023-12-20T12:00:15;23.98;;;10.82;;
52718;SDS011;38616;42.140;24.760;2023-12-20T12:02:41;34.63;;;12.85;;
52718;SDS011;38616;42.140;24.760;2023-12-20T12:05:07;28.90;;;11.10;;
52718;SDS011;38616;42.140;24.760;2023-12-20T12:07:33;23.77;;;11.25;;
52718;SDS011;38616;42.140;24.760;2023-12-20T12:10:00;23.17;;;10.70;;
52718;SDS011;38616;42.140;24.760;2023-12-20T12:12:25;27.52;;;12.80;;
52718;SDS011;38616;42.140;24.760;2023-12-20T12:14:52;30.45;;;13.20;;
52718;SDS011;38616;42.140;24.760;2023-12-20T12:17:19;37.57;;;14.97;;
52718;SDS011;38616;42.140;24.760;2023-12-20T12:19:45;31.05;;;15.68;;
52718;SDS011;38616;42.140;24.760;2023-12-20T12:22:11;29.98;;;15.10;;
52718;SDS011;38616;42.140;24.760;2023-12-20T12:24:48;34.20;;;17.55;;
52718;SDS011;38616;42.140;24.760;2023-12-20T12:27:14;43.25;;;19.23;;
52718;SDS011;38616;42.140;24.760;2023-12-20T12:29:40;38.38;;;17.00;;
52718;SDS011;38616;42.140;24.760;2023-12-20T12:32:24;41.95;;;18.05;;
52718;SDS011;38616;42.140;24.760;2023-12-20T12:34:52;36.03;;;17.50;;
52718;SDS011;38616;42.140;24.760;2023-12-20T12:37:18;36.13;;;17.85;;
52718;SDS011;38616;42.140;24.760;2023-12-20T12:39:44;43.15;;;19.98;;
52718;SDS011;38616;42.140;24.760;2023-12-20T12:42:11;33.05;;;18.77;;
52718;SDS011;38616;42.140;24.760;2023-12-20T12:44:37;45.80;;;17.45;;
52718;SDS011;38616;42.140;24.760;2023-12-20T12:47:02;33.03;;;16.27;;
52718;SDS011;38616;42.140;24.760;2023-12-20T12:49:28;35.95;;;17.75;;
52718;SDS011;38616;42.140;24.760;2023-12-20T12:51:54;33.47;;;16.60;;
52718;SDS011;38616;42.140;24.760;2023-12-20T12:54:23;32.83;;;17.73;;
52718;SDS011;38616;42.140;24.760;2023-12-20T12:56:51;42.60;;;19.83;;
52718;SDS011;38616;42.140;24.760;2023-12-20T12:59:18;32.75;;;17.15;;
52718;SDS011;38616;42.140;24.760;2023-12-20T13:01:43;32.58;;;17.05;;
52718;SDS011;38616;42.140;24.760;2023-12-20T13:04:09;35.65;;;17.00;;
52718;SDS011;38616;42.140;24.760;2023-12-20T13:06:38;35.28;;;16.05;;
52718;SDS011;38616;42.140;24.760;2023-12-20T13:09:06;35.83;;;16.42;;
52718;SDS011;38616;42.140;24.760;2023-12-20T13:11:32;32.13;;;15.00;;
52718;SDS011;38616;42.140;24.760;2023-12-20T13:13:59;34.67;;;15.27;;
52718;SDS011;38616;42.140;24.760;2023-12-20T13:16:24;36.30;;;17.10;;
52718;SDS011;38616;42.140;24.760;2023-12-20T13:18:50;34.65;;;16.88;;
52718;SDS011;38616;42.140;24.760;2023-12-20T13:21:15;35.53;;;16.33;;
52718;SDS011;38616;42.140;24.760;2023-12-20T13:23:41;30.67;;;15.77;;
52718;SDS011;38616;42.140;24.760;2023-12-20T13:26:07;35.58;;;18.02;;
52718;SDS011;38616;42.140;24.760;2023-12-20T13:28:33;31.67;;;15.65;;
52718;SDS011;38616;42.140;24.760;2023-12-20T13:30:58;32.58;;;17.95;;
52718;SDS011;38616;42.140;24.760;2023-12-20T13:33:24;34.25;;;17.70;;
52718;SDS011;38616;42.140;24.760;2023-12-20T13:35:50;35.85;;;14.32;;
52718;SDS011;38616;42.140;24.760;2023-12-20T13:38:16;34.00;;;15.27;;
52718;SDS011;38616;42.140;24.760;2023-12-20T13:40:41;34.20;;;15.73;;
52718;SDS011;38616;42.140;24.760;2023-12-20T13:45:39;32.70;;;15.52;;
52718;SDS011;38616;42.140;24.760;2023-12-20T13:48:05;34.22;;;16.23;;
52718;SDS011;38616;42.140;24.760;2023-12-20T13:50:30;44.10;;;17.42;;
52718;SDS011;38616;42.140;24.760;2023-12-20T13:52:56;39.47;;;17.38;;
52718;SDS011;38616;42.140;24.760;2023-12-20T13:55:21;37.78;;;17.20;;
52718;SDS011;38616;42.140;24.760;2023-12-20T13:57:50;32.40;;;18.25;;
52718;SDS011;38616;42.140;24.760;2023-12-20T14:00:16;37.90;;;18.48;;
52718;SDS011;38616;42.140;24.760;2023-12-20T14:02:42;47.05;;;17.35;;
52718;SDS011;38616;42.140;24.760;2023-12-20T14:05:08;42.45;;;17.58;;
52718;SDS011;38616;42.140;24.760;2023-12-20T14:07:34;52.25;;;18.65;;
52718;SDS011;38616;42.140;24.760;2023-12-20T14:10:00;37.90;;;17.38;;
52718;SDS011;38616;42.140;24.760;2023-12-20T14:12:25;36.53;;;16.33;;
52718;SDS011;38616;42.140;24.760;2023-12-20T14:14:51;40.40;;;18.52;;
52718;SDS011;38616;42.140;24.760;2023-12-20T14:17:17;34.47;;;16.02;;
52718;SDS011;38616;42.140;24.760;2023-12-20T14:19:43;36.80;;;16.13;;
52718;SDS011;38616;42.140;24.760;2023-12-20T14:22:08;39.28;;;17.50;;